createdAt,value
2023-01-15T00:00:02.013Z,1010.9
2023-01-15T00:01:01.952Z,1010.9
2023-01-15T00:02:01.943Z,1010.8
2023-01-15T00:03:02.020Z,1010.9
2023-01-15T00:04:02.033Z,1010.8
2023-01-15T00:05:01.963Z,1010.7
2023-01-15T00:06:01.735Z,1010.9
2023-01-15T00:07:02.821Z,1010.9
2023-01-15T00:08:02.694Z,1010.8
2023-01-15T00:09:02.700Z,1010.8
2023-01-15T00:10:02.583Z,1010.6
2023-01-15T00:11:02.616Z,1010.6
2023-01-15T00:12:02.498Z,1010.6
2023-01-15T00:13:02.552Z,1010.6
2023-01-15T00:14:02.539Z,1010.5
2023-01-15T00:15:02.391Z,1010.5
2023-01-15T00:16:02.695Z,1010.7
2023-01-15T00:17:01.794Z,1010.6
2023-01-15T00:18:01.853Z,1010.5
2023-01-15T00:19:02.834Z,1010.6
2023-01-15T00:20:02.708Z,1010.6
2023-01-15T00:21:02.706Z,1010.6
2023-01-15T00:22:02.645Z,1010.6
2023-01-15T00:23:02.719Z,1010.7
2023-01-15T00:24:02.546Z,1010.5
2023-01-15T00:25:02.581Z,1010.5
2023-01-15T00:26:02.446Z,1010.5
2023-01-15T00:27:02.594Z,1010.5
2023-01-15T00:28:02.577Z,1010.4
2023-01-15T00:29:02.382Z,1010.5
2023-01-15T00:30:02.400Z,1010.4
2023-01-15T00:31:02.638Z,1010.5
2023-01-15T00:32:02.663Z,1010.4
2023-01-15T00:33:02.707Z,1010.5
2023-01-15T00:34:02.628Z,1010.6
2023-01-15T00:35:02.709Z,1010.4
2023-01-15T00:36:02.616Z,1010.5
2023-01-15T00:37:02.642Z,1010.4
2023-01-15T00:38:02.477Z,1010.4
2023-01-15T00:39:02.594Z,1010.5
2023-01-15T00:40:02.426Z,1010.3
2023-01-15T00:41:02.452Z,1010.4
2023-01-15T00:42:02.456Z,1010.3
2023-01-15T00:43:02.334Z,1010.4
2023-01-15T00:44:03.005Z,1010.4
2023-01-15T00:45:02.016Z,1010.3
2023-01-15T00:46:01.910Z,1010.4
2023-01-15T00:47:01.824Z,1010.4
2023-01-15T00:48:01.875Z,1010.4
2023-01-15T00:49:01.750Z,1010.4
2023-01-15T00:50:02.844Z,1010.4
2023-01-15T00:51:02.688Z,1010.3
2023-01-15T00:52:02.761Z,1010.3
2023-01-15T00:53:02.703Z,1010.3
2023-01-15T00:54:02.601Z,1010.3
2023-01-15T00:55:02.581Z,1010.2
2023-01-15T00:56:02.681Z,1010.2
2023-01-15T00:57:02.530Z,1010.1
2023-01-15T00:58:02.605Z,1010.1
2023-01-15T00:59:02.614Z,1010.1
2023-01-15T01:00:02.485Z,1010.1
2023-01-15T01:01:02.918Z,1010
2023-01-15T01:02:02.539Z,1010.1
2023-01-15T01:03:02.470Z,1010.1
2023-01-15T01:04:02.475Z,1010
2023-01-15T01:05:02.225Z,1010.1
2023-01-15T01:06:02.295Z,1010
2023-01-15T01:07:02.285Z,1010
2023-01-15T01:08:02.165Z,1010.1
2023-01-15T01:09:02.178Z,1009.9
2023-01-15T01:10:02.011Z,1009.9
2023-01-15T01:11:02.003Z,1009.8
2023-01-15T01:12:01.821Z,1009.8
2023-01-15T01:13:01.845Z,1009.9
2023-01-15T01:14:01.736Z,1009.8
2023-01-15T01:15:01.858Z,1009.8
2023-01-15T01:16:02.023Z,1009.7
2023-01-15T01:17:01.982Z,1009.7
2023-01-15T01:18:02.017Z,1009.7
2023-01-15T01:19:01.894Z,1009.7
2023-01-15T01:20:01.967Z,1009.7
2023-01-15T01:21:01.793Z,1009.7
2023-01-15T01:22:01.889Z,1009.7
2023-01-15T01:23:01.746Z,1009.8
2023-01-15T01:24:02.794Z,1009.8
2023-01-15T01:25:02.655Z,1009.6
2023-01-15T01:26:02.669Z,1009.6
2023-01-15T01:27:02.650Z,1010.2
2023-01-15T01:28:02.666Z,1009.7
2023-01-15T01:29:02.510Z,1009.6
2023-01-15T01:30:02.593Z,1009.6
2023-01-15T01:31:02.593Z,1009.8
2023-01-15T01:32:02.387Z,1009.6
2023-01-15T01:33:02.409Z,1009.5
2023-01-15T01:34:02.391Z,1009.5
2023-01-15T01:35:02.210Z,1009.5
2023-01-15T01:36:02.194Z,1009.6
2023-01-15T01:37:02.102Z,1009.6
2023-01-15T01:38:02.183Z,1009.7
2023-01-15T01:39:02.010Z,1009.5
2023-01-15T01:40:02.057Z,1009.5
2023-01-15T01:41:01.939Z,1009.8
2023-01-15T01:42:01.969Z,1009.6
2023-01-15T01:43:01.787Z,1009.5
2023-01-15T01:44:01.931Z,1009.6
2023-01-15T01:45:02.882Z,1009.5
2023-01-15T01:46:02.851Z,1009.7
2023-01-15T01:47:02.156Z,1009.5
2023-01-15T01:48:02.180Z,1009.5
2023-01-15T01:49:02.002Z,1009.4
2023-01-15T01:50:02.128Z,1009.4
2023-01-15T01:51:01.908Z,1009.4
2023-01-15T01:52:02.021Z,1009.3
2023-01-15T01:53:01.819Z,1009.3
2023-01-15T01:54:01.883Z,1009.4
2023-01-15T01:55:01.743Z,1009.3
2023-01-15T01:56:01.837Z,1009.3
2023-01-15T01:57:02.777Z,1009.2
2023-01-15T01:58:02.639Z,1009.1
2023-01-15T01:59:02.712Z,1009.5
2023-01-15T02:00:02.578Z,1009.2
2023-01-15T02:01:03.104Z,1009.2
2023-01-15T02:02:02.392Z,1009
2023-01-15T02:03:02.360Z,1009.1
2023-01-15T02:04:02.244Z,1009.2
2023-01-15T02:05:02.127Z,1009.1
2023-01-15T02:06:02.204Z,1009
2023-01-15T02:07:02.130Z,1009
2023-01-15T02:08:02.096Z,1009
2023-01-15T02:09:02.012Z,1009.3
2023-01-15T02:10:02.259Z,1009
2023-01-15T02:11:02.023Z,1009.1
2023-01-15T02:12:02.047Z,1009
2023-01-15T02:13:01.947Z,1009.1
2023-01-15T02:14:01.982Z,1009
2023-01-15T02:15:01.779Z,1009.1
2023-01-15T02:16:02.046Z,1008.9
2023-01-15T02:17:02.434Z,1008.9
2023-01-15T02:18:02.255Z,1008.9
2023-01-15T02:19:02.296Z,1009
2023-01-15T02:20:02.153Z,1008.9
2023-01-15T02:21:02.121Z,1008.8
2023-01-15T02:22:02.018Z,1008.9
2023-01-15T02:23:02.027Z,1008.8
2023-01-15T02:24:03.731Z,1008.8
2023-01-15T02:25:02.503Z,1009
2023-01-15T02:26:02.570Z,1008.8
2023-01-15T02:27:02.449Z,1008.9
2023-01-15T02:28:02.555Z,1008.9
2023-01-15T02:29:02.502Z,1009.1
2023-01-15T02:30:02.400Z,1008.8
2023-01-15T02:31:02.471Z,1008.9
2023-01-15T02:32:02.808Z,1008.7
2023-01-15T02:33:02.612Z,1008.9
2023-01-15T02:34:02.713Z,1008.8
2023-01-15T02:35:02.668Z,1008.8
2023-01-15T02:36:02.564Z,1009
2023-01-15T02:37:02.489Z,1008.8
2023-01-15T02:38:02.621Z,1008.7
2023-01-15T02:39:02.398Z,1008.9
2023-01-15T02:40:02.489Z,1008.6
2023-01-15T02:41:02.515Z,1008.7
2023-01-15T02:42:02.306Z,1008.9
2023-01-15T02:43:02.392Z,1009
2023-01-15T02:44:02.346Z,1008.9
2023-01-15T02:45:02.181Z,1008.8
2023-01-15T02:46:02.508Z,1008.8
2023-01-15T02:47:02.621Z,1008.8
2023-01-15T02:48:02.536Z,1008.8
2023-01-15T02:49:02.585Z,1008.9
2023-01-15T02:50:02.473Z,1008.9
2023-01-15T02:51:02.527Z,1009
2023-01-15T02:52:02.563Z,1008.7
2023-01-15T02:53:02.373Z,1008.6
2023-01-15T02:54:02.425Z,1008.8
2023-01-15T02:55:02.401Z,1008.7
2023-01-15T02:56:02.264Z,1008.7
2023-01-15T02:57:02.467Z,1008.7
2023-01-15T02:58:02.323Z,1008.7
2023-01-15T02:59:02.207Z,1008.8
2023-01-15T03:00:02.365Z,1009
2023-01-15T03:01:02.644Z,1008.7
2023-01-15T03:02:03.037Z,1008.7
2023-01-15T03:03:01.914Z,1008.7
2023-01-15T03:04:01.780Z,1008.6
2023-01-15T03:05:01.820Z,1008.7
2023-01-15T03:06:01.756Z,1008.6
2023-01-15T03:07:01.890Z,1008.6
2023-01-15T03:08:01.756Z,1008.7
2023-01-15T03:09:01.880Z,1008.6
2023-01-15T03:10:01.750Z,1008.7
2023-01-15T03:11:01.844Z,1008.7
2023-01-15T03:12:01.717Z,1008.7
2023-01-15T03:13:01.876Z,1008.7
2023-01-15T03:14:01.772Z,1008.6
2023-01-15T03:15:01.830Z,1008.6
2023-01-15T03:16:01.776Z,1008.7
2023-01-15T03:17:02.110Z,1008.7
2023-01-15T03:18:02.138Z,1008.8
2023-01-15T03:19:02.014Z,1008.7
2023-01-15T03:20:02.173Z,1008.7
2023-01-15T03:21:01.934Z,1008.7
2023-01-15T03:22:01.952Z,1008.6
2023-01-15T03:23:01.911Z,1008.7
2023-01-15T03:24:02.058Z,1008.5
2023-01-15T03:25:02.020Z,1008.5
2023-01-15T03:26:02.115Z,1008.4
2023-01-15T03:27:02.017Z,1008.5
2023-01-15T03:28:02.195Z,1008.5
2023-01-15T03:29:02.060Z,1008.6
2023-01-15T03:30:02.083Z,1008.5
2023-01-15T03:31:02.345Z,1008.4
2023-01-15T03:32:02.280Z,1008.5
2023-01-15T03:33:02.293Z,1008.4
2023-01-15T03:34:02.246Z,1008.4
2023-01-15T03:35:02.139Z,1008.3
2023-01-15T03:36:02.210Z,1008.3
2023-01-15T03:37:02.057Z,1008.3
2023-01-15T03:38:02.072Z,1008.2
2023-01-15T03:39:01.924Z,1008.3
2023-01-15T03:40:02.027Z,1008.3
2023-01-15T03:41:01.800Z,1008.3
2023-01-15T03:42:01.885Z,1008.2
2023-01-15T03:43:01.758Z,1008.2
2023-01-15T03:44:01.844Z,1008.3
2023-01-15T03:45:02.793Z,1008.3
2023-01-15T03:46:02.765Z,1008.2
2023-01-15T03:47:02.277Z,1008.3
2023-01-15T03:48:02.359Z,1008.1
2023-01-15T03:49:02.315Z,1008.3
2023-01-15T03:50:02.292Z,1008.1
2023-01-15T03:51:02.189Z,1008.2
2023-01-15T03:52:02.081Z,1008.2
2023-01-15T03:53:02.297Z,1008.1
2023-01-15T03:54:02.466Z,1008.3
2023-01-15T03:55:02.197Z,1008.3
2023-01-15T03:56:02.245Z,1008.3
2023-01-15T03:57:02.258Z,1008.3
2023-01-15T03:58:02.146Z,1008.2
2023-01-15T03:59:02.318Z,1008.3
2023-01-15T04:00:02.145Z,1008.2
2023-01-15T04:01:02.547Z,1008.2
2023-01-15T04:02:02.838Z,1008.1
2023-01-15T04:03:02.621Z,1008.2
2023-01-15T04:04:02.877Z,1008
2023-01-15T04:05:02.749Z,1008.2
2023-01-15T04:06:02.778Z,1008
2023-01-15T04:07:02.644Z,1008.1
2023-01-15T04:08:02.753Z,1008.1
2023-01-15T04:09:02.578Z,1008
2023-01-15T04:10:02.656Z,1007.9
2023-01-15T04:11:02.559Z,1008
2023-01-15T04:12:02.681Z,1007.8
2023-01-15T04:13:02.591Z,1007.9
2023-01-15T04:14:02.652Z,1007.9
2023-01-15T04:15:02.531Z,1008
2023-01-15T04:16:02.900Z,1007.8
2023-01-15T04:17:02.611Z,1007.9
2023-01-15T04:18:02.630Z,1007.9
2023-01-15T04:19:02.622Z,1008
2023-01-15T04:20:02.585Z,1007.9
2023-01-15T04:21:05.776Z,1008
2023-01-15T04:22:02.548Z,1007.9
2023-01-15T04:23:02.579Z,1007.9
2023-01-15T04:24:02.494Z,1007.8
2023-01-15T04:25:02.553Z,1007.8
2023-01-15T04:26:02.508Z,1007.9
2023-01-15T04:27:02.375Z,1007.9
2023-01-15T04:28:02.561Z,1008.2
2023-01-15T04:29:02.463Z,1007.9
2023-01-15T04:30:02.306Z,1008.1
2023-01-15T04:31:02.651Z,1008
2023-01-15T04:32:02.810Z,1007.9
2023-01-15T04:33:02.704Z,1008
2023-01-15T04:34:02.710Z,1007.8
2023-01-15T04:35:02.628Z,1007.8
2023-01-15T04:36:02.672Z,1007.9
2023-01-15T04:37:02.576Z,1007.9
2023-01-15T04:38:02.619Z,1007.9
2023-01-15T04:39:02.531Z,1007.8
2023-01-15T04:40:02.727Z,1008
2023-01-15T04:41:02.609Z,1007.7
2023-01-15T04:42:02.677Z,1007.8
2023-01-15T04:43:02.606Z,1007.7
2023-01-15T04:44:02.685Z,1007.7
2023-01-15T04:45:02.565Z,1007.8
2023-01-15T04:46:02.760Z,1007.6
2023-01-15T04:47:01.832Z,1007.7
2023-01-15T04:48:01.900Z,1007.6
2023-01-15T04:49:01.742Z,1007.7
2023-01-15T04:50:02.015Z,1007.6
2023-01-15T04:51:01.867Z,1007.6
2023-01-15T04:52:01.950Z,1007.6
2023-01-15T04:53:01.874Z,1007.5
2023-01-15T04:54:01.961Z,1007.6
2023-01-15T04:55:01.966Z,1007.5
2023-01-15T04:56:02.043Z,1007.5
2023-01-15T04:57:02.068Z,1007.6
2023-01-15T04:58:01.954Z,1007.5
2023-01-15T04:59:01.823Z,1007.5
2023-01-15T05:00:02.051Z,1007.6
2023-01-15T05:01:02.397Z,1007.6
2023-01-15T05:02:07.487Z,1007.8
2023-01-15T05:03:02.388Z,1007.6
2023-01-15T05:04:02.470Z,1007.6
2023-01-15T05:05:02.418Z,1007.6
2023-01-15T05:06:02.212Z,1007.7
2023-01-15T05:07:02.331Z,1007.7
2023-01-15T05:08:02.337Z,1007.9
2023-01-15T05:09:02.202Z,1007.6
2023-01-15T05:10:02.218Z,1007.6
2023-01-15T05:11:02.041Z,1007.7
2023-01-15T05:12:02.229Z,1007.6
2023-01-15T05:13:02.055Z,1007.6
2023-01-15T05:14:02.093Z,1007.5
2023-01-15T05:15:01.972Z,1007.7
2023-01-15T05:16:02.153Z,1007.6
2023-01-15T05:17:02.358Z,1007.6
2023-01-15T05:18:02.140Z,1007.4
2023-01-15T05:19:02.227Z,1007.4
2023-01-15T05:20:02.131Z,1007.3
2023-01-15T05:21:02.118Z,1007.4
2023-01-15T05:22:01.974Z,1007.7
2023-01-15T05:23:01.997Z,1007.3
2023-01-15T05:24:01.826Z,1007.3
2023-01-15T05:25:01.982Z,1007.4
2023-01-15T05:26:01.798Z,1007.4
2023-01-15T05:27:01.830Z,1007.4
2023-01-15T05:28:01.748Z,1007.4
2023-01-15T05:29:01.891Z,1007.4
2023-01-15T05:30:01.779Z,1007.3
2023-01-15T05:31:02.078Z,1007.2
2023-01-15T05:32:02.272Z,1007.2
2023-01-15T05:33:02.139Z,1007.2
2023-01-15T05:34:02.272Z,1007.1
2023-01-15T05:35:02.045Z,1007.2
2023-01-15T05:36:02.053Z,1007
2023-01-15T05:37:01.965Z,1007.1
2023-01-15T05:38:01.937Z,1007.1
2023-01-15T05:39:02.938Z,1007.1
2023-01-15T05:40:02.724Z,1007.1
2023-01-15T05:41:02.749Z,1007.3
2023-01-15T05:42:02.712Z,1007.1
2023-01-15T05:43:02.747Z,1007.2
2023-01-15T05:44:02.595Z,1007.2
2023-01-15T05:45:02.653Z,1007.1
2023-01-15T05:46:02.746Z,1007.1
2023-01-15T05:47:02.253Z,1007.2
2023-01-15T05:48:02.342Z,1007.1
2023-01-15T05:49:02.211Z,1007.1
2023-01-15T05:50:02.081Z,1007.1
2023-01-15T05:51:02.175Z,1007.1
2023-01-15T05:52:02.114Z,1007
2023-01-15T05:53:02.172Z,1007
2023-01-15T05:54:02.042Z,1006.9
2023-01-15T05:55:02.111Z,1007
2023-01-15T05:56:01.857Z,1007.1
2023-01-15T05:57:02.053Z,1007
2023-01-15T05:58:01.797Z,1007
2023-01-15T05:59:01.857Z,1007.1
2023-01-15T06:00:01.851Z,1007
2023-01-15T06:01:02.855Z,1007
2023-01-15T06:02:01.950Z,1007
2023-01-15T06:03:02.202Z,1007
2023-01-15T06:04:02.464Z,1007
2023-01-15T06:05:02.262Z,1007.1
2023-01-15T06:06:02.266Z,1007
2023-01-15T06:07:02.137Z,1007
2023-01-15T06:08:02.108Z,1006.9
2023-01-15T06:09:02.044Z,1006.9
2023-01-15T06:10:02.087Z,1006.9
2023-01-15T06:11:01.950Z,1007
2023-01-15T06:12:02.015Z,1006.9
2023-01-15T06:13:01.850Z,1007
2023-01-15T06:14:02.037Z,1007.1
2023-01-15T06:15:01.950Z,1007.2
2023-01-15T06:16:02.124Z,1007.1
2023-01-15T06:17:02.326Z,1007.1
2023-01-15T06:18:02.160Z,1007
2023-01-15T06:19:02.240Z,1007
2023-01-15T06:20:02.042Z,1007
2023-01-15T06:21:02.212Z,1007
2023-01-15T06:22:02.081Z,1007
2023-01-15T06:23:02.165Z,1007
2023-01-15T06:24:02.069Z,1007.1
2023-01-15T06:25:02.141Z,1007.1
2023-01-15T06:26:01.987Z,1007.1
2023-01-15T06:27:02.019Z,1007.2
2023-01-15T06:28:01.860Z,1007.2
2023-01-15T06:29:01.935Z,1007.1
2023-01-15T06:30:01.813Z,1007.1
2023-01-15T06:31:02.015Z,1007.1
2023-01-15T06:32:02.059Z,1007.1
2023-01-15T06:33:02.190Z,1007.1
2023-01-15T06:34:02.138Z,1007.1
2023-01-15T06:35:02.140Z,1007.1
2023-01-15T06:36:02.074Z,1007.1
2023-01-15T06:37:02.174Z,1007.1
2023-01-15T06:38:02.109Z,1007.1
2023-01-15T06:39:05.731Z,1007.2
2023-01-15T06:40:02.641Z,1007.2
2023-01-15T06:41:02.447Z,1007.2
2023-01-15T06:42:02.501Z,1007.2
2023-01-15T06:43:02.433Z,1007.2
2023-01-15T06:44:02.351Z,1007.2
2023-01-15T06:45:02.343Z,1007.2
2023-01-15T06:46:02.257Z,1007.2
2023-01-15T06:47:02.510Z,1007.1
2023-01-15T06:48:02.583Z,1007.1
2023-01-15T06:49:02.500Z,1007.2
2023-01-15T06:50:02.515Z,1007.2
2023-01-15T06:51:02.498Z,1007.3
2023-01-15T06:52:02.440Z,1007.3
2023-01-15T06:53:02.471Z,1007.1
2023-01-15T06:54:02.426Z,1007
2023-01-15T06:55:02.405Z,1007.1
2023-01-15T06:56:02.308Z,1007.3
2023-01-15T06:57:02.230Z,1007.3
2023-01-15T06:58:02.182Z,1007.2
2023-01-15T06:59:02.218Z,1007.2
2023-01-15T07:00:02.195Z,1007.2
2023-01-15T07:01:02.520Z,1007.2
2023-01-15T07:02:01.809Z,1007.2
2023-01-15T07:03:01.891Z,1007.2
2023-01-15T07:04:01.917Z,1007.1
2023-01-15T07:05:01.886Z,1007.1
2023-01-15T07:06:02.780Z,1007.3
2023-01-15T07:07:02.669Z,1007.2
2023-01-15T07:08:02.749Z,1007.3
2023-01-15T07:09:02.594Z,1007.2
2023-01-15T07:10:02.597Z,1007.1
2023-01-15T07:11:02.553Z,1007.2
2023-01-15T07:12:02.598Z,1007.2
2023-01-15T07:13:02.479Z,1007.1
2023-01-15T07:14:02.557Z,1007.2
2023-01-15T07:15:02.456Z,1007
2023-01-15T07:16:02.644Z,1007.1
2023-01-15T07:17:01.786Z,1007.1
2023-01-15T07:18:01.843Z,1007.2
2023-01-15T07:19:02.721Z,1007.1
2023-01-15T07:20:02.357Z,1007.2
2023-01-15T07:21:02.380Z,1007.1
2023-01-15T07:22:02.374Z,1007.1
2023-01-15T07:23:02.228Z,1007.1
2023-01-15T07:24:02.402Z,1007.2
2023-01-15T07:25:02.626Z,1007.1
2023-01-15T07:26:02.347Z,1007.1
2023-01-15T07:27:02.406Z,1007.1
2023-01-15T07:28:02.346Z,1007.1
2023-01-15T07:29:02.259Z,1007.2
2023-01-15T07:30:02.274Z,1007.2
2023-01-15T07:31:02.507Z,1007.2
2023-01-15T07:32:02.540Z,1007.2
2023-01-15T07:33:02.592Z,1007.2
2023-01-15T07:34:02.530Z,1007.2
2023-01-15T07:35:02.413Z,1007.2
2023-01-15T07:36:02.473Z,1007.1
2023-01-15T07:37:02.529Z,1007.1
2023-01-15T07:38:02.281Z,1007.1
2023-01-15T07:39:02.332Z,1007.3
2023-01-15T07:40:02.335Z,1007.1
2023-01-15T07:41:02.211Z,1007.2
2023-01-15T07:42:02.281Z,1007.3
2023-01-15T07:43:02.106Z,1007.3
2023-01-15T07:44:02.191Z,1007.1
2023-01-15T07:45:02.279Z,1007
2023-01-15T07:46:02.373Z,1007
2023-01-15T07:47:02.499Z,1006.9
2023-01-15T07:48:02.492Z,1007.1
2023-01-15T07:49:02.547Z,1007
2023-01-15T07:50:02.413Z,1007.1
2023-01-15T07:51:02.466Z,1007
2023-01-15T07:52:02.440Z,1007
2023-01-15T07:53:02.295Z,1007.1
2023-01-15T07:54:02.377Z,1007.1
2023-01-15T07:55:02.363Z,1007
2023-01-15T07:56:02.303Z,1007
2023-01-15T07:57:02.154Z,1006.9
2023-01-15T07:58:02.069Z,1006.9
2023-01-15T07:59:02.127Z,1007
2023-01-15T08:00:02.021Z,1006.9
2023-01-15T08:01:02.535Z,1006.9
2023-01-15T08:02:03.194Z,1006.9
2023-01-15T08:03:01.998Z,1006.9
2023-01-15T08:04:02.197Z,1007
2023-01-15T08:05:01.960Z,1006.9
2023-01-15T08:06:01.964Z,1007
2023-01-15T08:07:01.861Z,1007.2
2023-01-15T08:08:01.869Z,1007.1
2023-01-15T08:09:01.750Z,1007
2023-01-15T08:10:02.768Z,1007
2023-01-15T08:11:02.656Z,1007
2023-01-15T08:12:02.706Z,1007
2023-01-15T08:13:02.610Z,1007
2023-01-15T08:14:02.669Z,1007.1
2023-01-15T08:15:02.515Z,1007
2023-01-15T08:16:02.765Z,1007.1
2023-01-15T08:17:01.745Z,1007
2023-01-15T08:18:02.767Z,1007.1
2023-01-15T08:19:02.623Z,1007.1
2023-01-15T08:20:02.717Z,1007.1
2023-01-15T08:21:02.569Z,1007.1
2023-01-15T08:22:02.623Z,1007.1
2023-01-15T08:23:02.487Z,1007.1
2023-01-15T08:24:02.466Z,1007.1
2023-01-15T08:25:02.428Z,1007.1
2023-01-15T08:26:02.342Z,1007
2023-01-15T08:27:02.410Z,1007.1
2023-01-15T08:28:02.390Z,1007.1
2023-01-15T08:29:02.210Z,1007.1
2023-01-15T08:30:02.258Z,1007
2023-01-15T08:31:02.129Z,1007.1
2023-01-15T08:32:03.755Z,1007.1
2023-01-15T08:33:02.581Z,1007.1
2023-01-15T08:34:02.469Z,1007.1
2023-01-15T08:35:02.511Z,1007
2023-01-15T08:36:02.472Z,1006.9
2023-01-15T08:37:02.310Z,1006.9
2023-01-15T08:38:02.395Z,1007
2023-01-15T08:39:02.371Z,1006.9
2023-01-15T08:40:02.319Z,1006.9
2023-01-15T08:41:02.344Z,1006.9
2023-01-15T08:42:02.266Z,1006.9
2023-01-15T08:43:02.196Z,1006.8
2023-01-15T08:44:02.268Z,1006.9
2023-01-15T08:45:02.131Z,1006.9
2023-01-15T08:46:02.488Z,1006.9
2023-01-15T08:47:02.513Z,1006.8
2023-01-15T08:48:02.458Z,1006.9
2023-01-15T08:49:02.400Z,1006.8
2023-01-15T08:50:02.442Z,1006.7
2023-01-15T08:51:02.291Z,1006.8
2023-01-15T08:52:02.390Z,1006.7
2023-01-15T08:53:02.251Z,1006.7
2023-01-15T08:54:01.987Z,1006.7
2023-01-15T08:55:02.040Z,1006.8
2023-01-15T08:56:01.800Z,1006.8
2023-01-15T08:57:01.792Z,1006.8
2023-01-15T08:58:02.821Z,1006.8
2023-01-15T08:59:02.620Z,1006.8
2023-01-15T09:00:02.691Z,1006.7
2023-01-15T09:01:02.976Z,1006.7
2023-01-15T09:02:02.483Z,1006.7
2023-01-15T09:03:02.424Z,1006.7
2023-01-15T09:04:02.372Z,1006.6
2023-01-15T09:05:02.491Z,1006.6
2023-01-15T09:06:02.318Z,1006.6
2023-01-15T09:07:02.469Z,1006.6
2023-01-15T09:08:02.215Z,1006.6
2023-01-15T09:09:02.222Z,1006.6
2023-01-15T09:10:02.265Z,1006.5
2023-01-15T09:11:01.970Z,1006.6
2023-01-15T09:12:02.023Z,1006.6
2023-01-15T09:13:01.907Z,1006.7
2023-01-15T09:14:01.788Z,1006.7
2023-01-15T09:15:04.000Z,1006.6
2023-01-15T09:16:01.738Z,1006.5
2023-01-15T09:17:01.817Z,1006.6
2023-01-15T09:18:01.831Z,1006.6
2023-01-15T09:19:02.773Z,1006.6
2023-01-15T09:20:02.624Z,1006.7
2023-01-15T09:21:02.692Z,1006.7
2023-01-15T09:22:02.545Z,1006.7
2023-01-15T09:23:02.538Z,1006.7
2023-01-15T09:24:02.407Z,1006.8
2023-01-15T09:25:02.498Z,1006.7
2023-01-15T09:26:02.451Z,1006.7
2023-01-15T09:27:02.263Z,1006.8
2023-01-15T09:28:02.310Z,1006.8
2023-01-15T09:29:02.121Z,1006.7
2023-01-15T09:30:02.226Z,1006.7
2023-01-15T09:31:02.170Z,1006.7
2023-01-15T09:32:02.404Z,1006.8
2023-01-15T09:33:02.412Z,1006.7
2023-01-15T09:34:02.379Z,1006.7
2023-01-15T09:35:02.411Z,1006.6
2023-01-15T09:36:02.431Z,1006.6
2023-01-15T09:37:02.260Z,1006.7
2023-01-15T09:38:02.060Z,1006.7
2023-01-15T09:39:02.140Z,1006.6
2023-01-15T09:40:02.118Z,1006.6
2023-01-15T09:41:01.932Z,1006.6
2023-01-15T09:42:01.812Z,1006.6
2023-01-15T09:43:01.823Z,1006.6
2023-01-15T09:44:02.740Z,1006.6
2023-01-15T09:45:02.722Z,1006.5
2023-01-15T09:46:02.805Z,1006.5
2023-01-15T09:47:01.827Z,1006.5
2023-01-15T09:48:01.877Z,1006.5
2023-01-15T09:49:01.764Z,1006.5
2023-01-15T09:50:02.750Z,1006.5
2023-01-15T09:51:02.639Z,1006.4
2023-01-15T09:52:02.653Z,1006.4
2023-01-15T09:53:02.534Z,1006.4
2023-01-15T09:54:02.561Z,1006.4
2023-01-15T09:55:02.415Z,1006.4
2023-01-15T09:56:02.325Z,1006.4
2023-01-15T09:57:02.280Z,1006.4
2023-01-15T09:58:02.238Z,1006.3
2023-01-15T09:59:02.154Z,1006.4
2023-01-15T10:00:02.176Z,1006.4
2023-01-15T10:01:02.190Z,1006.3
2023-01-15T10:02:02.297Z,1006.3
2023-01-15T10:03:02.444Z,1006.3
2023-01-15T10:04:02.481Z,1006.2
2023-01-15T10:05:09.054Z,1006.2
2023-01-15T10:06:01.958Z,1006.2
2023-01-15T10:07:01.934Z,1006.2
2023-01-15T10:08:01.731Z,1006
2023-01-15T10:09:02.794Z,1006.1
2023-01-15T10:10:02.657Z,1006
2023-01-15T10:11:02.660Z,1005.9
2023-01-15T10:12:02.526Z,1006
2023-01-15T10:13:02.585Z,1005.9
2023-01-15T10:14:02.495Z,1005.9
2023-01-15T10:15:02.277Z,1006
2023-01-15T10:16:02.487Z,1005.9
2023-01-15T10:17:02.659Z,1005.9
2023-01-15T10:18:02.402Z,1006
2023-01-15T10:19:02.566Z,1005.9
2023-01-15T10:20:02.395Z,1005.9
2023-01-15T10:21:02.263Z,1006
2023-01-15T10:22:02.193Z,1005.9
2023-01-15T10:23:02.037Z,1005.8
2023-01-15T10:24:02.003Z,1006
2023-01-15T10:25:01.817Z,1005.9
2023-01-15T10:26:01.845Z,1005.9
2023-01-15T10:27:01.743Z,1005.9
2023-01-15T10:28:02.828Z,1005.7
2023-01-15T10:29:02.605Z,1005.9
2023-01-15T10:30:02.654Z,1005.6
2023-01-15T10:31:02.574Z,1005.6
2023-01-15T10:32:01.800Z,1005.6
2023-01-15T10:33:03.930Z,1005.7
2023-01-15T10:34:02.770Z,1005.6
2023-01-15T10:35:02.609Z,1005.6
2023-01-15T10:36:02.577Z,1005.6
2023-01-15T10:37:02.474Z,1005.5
2023-01-15T10:38:02.581Z,1005.6
2023-01-15T10:39:02.462Z,1005.6
2023-01-15T10:40:02.301Z,1005.6
2023-01-15T10:41:02.321Z,1005.5
2023-01-15T10:42:02.312Z,1005.5
2023-01-15T10:43:02.113Z,1005.5
2023-01-15T10:44:02.161Z,1005.6
2023-01-15T10:45:01.976Z,1005.5
2023-01-15T10:46:02.362Z,1005.6
2023-01-15T10:47:02.080Z,1005.5
2023-01-15T10:48:02.130Z,1005.6
2023-01-15T10:49:01.964Z,1005.7
2023-01-15T10:50:02.001Z,1005.4
2023-01-15T10:51:01.779Z,1005.6
2023-01-15T10:52:01.836Z,1005.4
2023-01-15T10:53:02.803Z,1005.5
2023-01-15T10:54:02.627Z,1005.4
2023-01-15T10:55:02.790Z,1005.5
2023-01-15T10:56:02.518Z,1005.5
2023-01-15T10:57:02.665Z,1005.4
2023-01-15T10:58:11.490Z,1005.4
2023-01-15T10:59:02.241Z,1005.4
2023-01-15T11:00:02.294Z,1005.4
2023-01-15T11:01:02.426Z,1005.3
2023-01-15T11:02:03.080Z,1005.4
2023-01-15T11:03:02.222Z,1005.4
2023-01-15T11:04:01.988Z,1005.2
2023-01-15T11:05:02.010Z,1005.2
2023-01-15T11:06:01.806Z,1005.4
2023-01-15T11:07:01.825Z,1005.2
2023-01-15T11:09:10.640Z,1005.2
2023-01-15T11:09:12.650Z,1005.2
2023-01-15T11:10:02.467Z,1005.2
2023-01-15T11:11:02.449Z,1005.1
2023-01-15T11:12:02.479Z,1005.1
2023-01-15T11:13:02.225Z,1005.2
2023-01-15T11:14:02.229Z,1005
2023-01-15T11:15:02.088Z,1005.1
2023-01-15T11:16:02.274Z,1005
2023-01-15T11:17:02.091Z,1005
2023-01-15T11:18:02.117Z,1005
2023-01-15T11:19:01.935Z,1005
2023-01-15T11:20:01.979Z,1004.9
2023-01-15T11:21:01.827Z,1004.9
2023-01-15T11:22:01.867Z,1005
2023-01-15T11:23:01.753Z,1005
2023-01-15T11:24:02.851Z,1004.9
2023-01-15T11:25:02.614Z,1005
2023-01-15T11:26:02.682Z,1004.9
2023-01-15T11:27:02.499Z,1004.9
2023-01-15T11:28:02.599Z,1004.9
2023-01-15T11:29:02.518Z,1005
2023-01-15T11:30:02.411Z,1004.8
2023-01-15T11:31:02.641Z,1004.9
2023-01-15T11:32:01.764Z,1004.9
2023-01-15T11:33:02.746Z,1004.9
2023-01-15T11:34:02.615Z,1004.9
2023-01-15T11:35:02.655Z,1004.9
2023-01-15T11:36:02.466Z,1004.9
2023-01-15T11:37:02.543Z,1004.8
2023-01-15T11:38:02.466Z,1004.9
2023-01-15T11:39:02.243Z,1004.8
2023-01-15T11:40:02.344Z,1004.9
2023-01-15T11:41:02.399Z,1004.8
2023-01-15T11:42:02.203Z,1004.8
2023-01-15T11:43:02.241Z,1004.8
2023-01-15T11:44:02.034Z,1004.8
2023-01-15T11:45:02.023Z,1004.8
2023-01-15T11:46:02.036Z,1004.8
2023-01-15T11:47:02.178Z,1004.8
2023-01-15T11:48:02.289Z,1004.8
2023-01-15T11:49:02.349Z,1004.7
2023-01-15T11:50:02.158Z,1004.8
2023-01-15T11:51:02.172Z,1004.6
2023-01-15T11:52:02.094Z,1004.7
2023-01-15T11:53:02.146Z,1004.7
2023-01-15T11:54:02.025Z,1004.8
2023-01-15T11:55:02.102Z,1004.9
2023-01-15T11:56:01.976Z,1004.8
2023-01-15T11:57:01.938Z,1004.9
2023-01-15T11:58:01.854Z,1004.8
2023-01-15T11:59:01.872Z,1004.8
2023-01-15T12:00:01.780Z,1005
2023-01-15T12:01:02.146Z,1004.7
2023-01-15T12:02:02.261Z,1004.8
2023-01-15T12:03:02.079Z,1004.7
2023-01-15T12:04:02.737Z,1004.7
2023-01-15T12:05:02.670Z,1004.8
2023-01-15T12:06:02.524Z,1004.7
2023-01-15T12:07:02.535Z,1004.7
2023-01-15T12:08:02.483Z,1004.6
2023-01-15T12:09:02.338Z,1004.6
2023-01-15T12:10:02.326Z,1004.6
2023-01-15T12:11:27.244Z,1004.6
2023-01-15T12:12:02.148Z,1004.6
2023-01-15T12:13:02.281Z,1004.5
2023-01-15T12:14:02.260Z,1004.5
2023-01-15T12:15:02.232Z,1004.5
2023-01-15T12:16:02.399Z,1004.5
2023-01-15T12:17:02.499Z,1004.5
2023-01-15T12:18:02.371Z,1004.5
2023-01-15T12:19:02.396Z,1004.7
2023-01-15T12:20:02.308Z,1004.5
2023-01-15T12:21:02.163Z,1004.5
2023-01-15T12:22:02.140Z,1004.5
2023-01-15T12:23:01.995Z,1004.5
2023-01-15T12:24:02.091Z,1004.6
2023-01-15T12:25:02.029Z,1004.5
2023-01-15T12:26:02.023Z,1004.5
2023-01-15T12:27:01.795Z,1004.5
2023-01-15T12:28:01.832Z,1004.5
2023-01-15T12:29:02.811Z,1004.6
2023-01-15T12:30:02.673Z,1004.5
2023-01-15T12:31:02.906Z,1004.4
2023-01-15T12:32:01.962Z,1004.3
2023-01-15T12:33:01.939Z,1004.2
2023-01-15T12:34:01.753Z,1004.3